createdAt,value
2022-09-28T00:00:47.474Z,0.60
2022-09-28T00:03:14.811Z,0.53
2022-09-28T00:05:42.325Z,0.40
2022-09-28T00:08:09.747Z,0.50
2022-09-28T00:10:37.581Z,0.50
2022-09-28T00:13:05.402Z,0.40
2022-09-28T00:15:34.114Z,0.33
2022-09-28T00:18:01.447Z,0.43
2022-09-28T00:20:28.781Z,0.30
2022-09-28T00:22:56.488Z,0.50
2022-09-28T00:25:24.918Z,0.33
2022-09-28T00:27:52.355Z,0.40
2022-09-28T00:30:19.697Z,0.53
2022-09-28T00:32:48.515Z,0.70
2022-09-28T00:35:16.049Z,0.40
2022-09-28T00:37:43.383Z,0.53
2022-09-28T00:40:10.853Z,0.40
2022-09-28T00:42:38.491Z,0.50
2022-09-28T00:45:08.624Z,0.40
2022-09-28T00:47:43.171Z,0.37
2022-09-28T00:50:23.444Z,0.43
2022-09-28T00:52:53.958Z,0.47
2022-09-28T00:55:23.451Z,0.40
2022-09-28T00:57:52.739Z,0.50
2022-09-28T01:00:20.325Z,0.40
2022-09-28T01:02:48.058Z,0.40
2022-09-28T01:05:15.922Z,0.90
2022-09-28T01:07:45.216Z,0.60
2022-09-28T01:10:13.121Z,0.60
2022-09-28T01:12:40.538Z,0.73
2022-09-28T01:15:09.519Z,0.70
2022-09-28T01:17:41.896Z,0.60
2022-09-28T01:20:28.124Z,0.90
2022-09-28T01:23:28.951Z,1.00
2022-09-28T01:26:04.354Z,0.70
2022-09-28T01:28:33.647Z,0.97
2022-09-28T01:31:04.706Z,0.87
2022-09-28T01:33:35.381Z,0.70
2022-09-28T01:36:06.961Z,0.77
2022-09-28T01:38:36.507Z,0.53
2022-09-28T01:41:04.611Z,0.70
2022-09-28T01:43:36.742Z,0.70
2022-09-28T01:46:08.199Z,0.90
2022-09-28T01:48:37.805Z,0.73
2022-09-28T01:51:09.142Z,0.97
2022-09-28T01:53:38.229Z,0.73
2022-09-28T01:56:10.256Z,0.70
2022-09-28T01:58:40.284Z,0.80
2022-09-28T02:01:10.244Z,0.80
2022-09-28T02:03:40.636Z,0.70
2022-09-28T02:06:10.092Z,0.73
2022-09-28T02:08:39.919Z,0.70
2022-09-28T02:11:10.126Z,0.70
2022-09-28T02:13:41.560Z,0.60
2022-09-28T02:16:11.802Z,0.93
2022-09-28T02:18:39.187Z,0.70
2022-09-28T02:21:08.535Z,1.00
2022-09-28T02:23:37.025Z,1.00
2022-09-28T02:26:08.065Z,1.27
2022-09-28T02:28:36.565Z,0.90
2022-09-28T02:31:05.472Z,0.77
2022-09-28T02:33:34.935Z,1.33
2022-09-28T02:36:03.433Z,0.90
2022-09-28T02:38:34.392Z,0.80
2022-09-28T02:41:05.392Z,0.97
2022-09-28T02:43:38.204Z,0.90
2022-09-28T02:46:09.757Z,0.90
2022-09-28T02:49:04.953Z,0.80
2022-09-28T02:51:41.470Z,0.87
2022-09-28T02:54:27.055Z,0.97
2022-09-28T02:57:05.781Z,0.80
2022-09-28T02:59:40.111Z,1.00
2022-09-28T03:02:12.131Z,0.87
2022-09-28T03:04:43.697Z,1.00
2022-09-28T03:07:21.635Z,1.00
2022-09-28T03:09:54.947Z,0.90
2022-09-28T03:12:24.420Z,1.07
2022-09-28T03:15:06.315Z,0.87
2022-09-28T03:17:35.069Z,0.90
2022-09-28T03:20:02.989Z,1.00
2022-09-28T03:22:30.308Z,0.90
2022-09-28T03:24:57.700Z,1.00
2022-09-28T03:27:25.085Z,1.10
2022-09-28T03:29:52.430Z,1.47
2022-09-28T03:32:20.152Z,1.00
2022-09-28T03:34:48.968Z,0.80
2022-09-28T03:37:16.491Z,0.90
2022-09-28T03:39:43.853Z,1.07
2022-09-28T03:42:11.207Z,0.90
2022-09-28T03:44:42.678Z,1.40
2022-09-28T03:47:10.483Z,4.70
2022-09-28T03:49:37.948Z,3.03
2022-09-28T03:52:06.748Z,6.77
2022-09-28T03:54:34.097Z,7.97
2022-09-28T03:57:01.678Z,3.33
2022-09-28T03:59:29.453Z,1.30
2022-09-28T04:01:56.998Z,1.60
2022-09-28T04:04:24.413Z,1.20
2022-09-28T04:06:51.785Z,1.00
2022-09-28T04:09:20.810Z,0.97
2022-09-28T04:12:03.455Z,4.57
2022-09-28T04:14:31.784Z,7.00
2022-09-28T04:16:59.114Z,8.40
2022-09-28T04:19:28.732Z,6.87
2022-09-28T04:22:23.272Z,7.53
2022-09-28T04:24:52.123Z,7.07
2022-09-28T04:27:37.337Z,2.30
2022-09-28T04:30:05.252Z,2.00
2022-09-28T04:32:34.386Z,1.10
2022-09-28T04:35:02.080Z,1.07
2022-09-28T04:37:31.141Z,1.20
2022-09-28T04:39:59.835Z,1.33
2022-09-28T04:42:27.363Z,1.60
2022-09-28T04:44:54.757Z,1.93
2022-09-28T04:47:22.459Z,1.90
2022-09-28T04:50:08.913Z,1.30
2022-09-28T04:52:56.220Z,1.40
2022-09-28T04:55:25.067Z,1.13
2022-09-28T04:57:52.401Z,0.80
2022-09-28T05:00:20.073Z,1.07
2022-09-28T05:03:02.694Z,0.73
2022-09-28T05:05:58.919Z,0.77
2022-09-28T05:08:38.565Z,1.00
2022-09-28T05:11:07.943Z,0.80
2022-09-28T05:13:41.598Z,1.10
2022-09-28T05:16:09.129Z,2.00
2022-09-28T05:18:49.892Z,2.80
2022-09-28T05:21:19.976Z,1.10
2022-09-28T05:23:48.047Z,0.70
2022-09-28T05:26:16.836Z,1.03
2022-09-28T05:28:44.603Z,1.00
2022-09-28T05:31:32.320Z,1.20
2022-09-28T05:34:14.900Z,1.10
2022-09-28T05:36:42.765Z,1.10
2022-09-28T05:39:10.526Z,1.20
2022-09-28T05:41:39.489Z,1.00
2022-09-28T05:44:06.832Z,0.70
2022-09-28T05:46:36.481Z,0.90
2022-09-28T05:49:04.313Z,0.83
2022-09-28T05:51:31.712Z,1.13
2022-09-28T05:54:03.268Z,1.00
2022-09-28T05:56:33.603Z,1.00
2022-09-28T05:59:07.529Z,1.17
2022-09-28T06:01:34.943Z,1.00
2022-09-28T06:04:03.437Z,1.00
2022-09-28T06:06:31.862Z,1.00
2022-09-28T06:08:59.369Z,1.00
2022-09-28T06:11:44.185Z,0.80
2022-09-28T06:14:26.409Z,0.70
2022-09-28T06:16:54.039Z,0.60
2022-09-28T06:19:22.485Z,0.70
2022-09-28T06:22:08.707Z,0.60
2022-09-28T06:24:44.461Z,0.70
2022-09-28T06:27:11.832Z,0.63
2022-09-28T06:29:40.512Z,0.70
2022-09-28T06:32:08.363Z,0.73
2022-09-28T06:34:39.398Z,0.90
2022-09-28T06:37:06.777Z,1.10
2022-09-28T06:39:37.497Z,1.00
2022-09-28T06:42:06.353Z,1.03
2022-09-28T06:44:55.000Z,1.30
2022-09-28T06:47:42.321Z,0.90
2022-09-28T06:50:24.171Z,0.90
2022-09-28T06:53:17.908Z,0.90
2022-09-28T06:55:51.150Z,0.93
2022-09-28T06:58:19.959Z,1.13
2022-09-28T07:00:49.493Z,1.27
2022-09-28T07:03:17.661Z,1.20
2022-09-28T07:06:04.780Z,1.70
2022-09-28T07:08:46.513Z,1.93
2022-09-28T07:11:39.412Z,2.20
2022-09-28T07:14:45.136Z,2.30
2022-09-28T07:17:14.933Z,2.70
2022-09-28T07:19:44.408Z,2.80
2022-09-28T07:22:18.569Z,3.70
2022-09-28T07:24:48.037Z,5.07
2022-09-28T07:27:37.013Z,6.43
2022-09-28T07:30:26.620Z,7.03
2022-09-28T07:33:06.058Z,6.27
2022-09-28T07:35:50.790Z,6.17
2022-09-28T07:38:18.184Z,6.87
2022-09-28T07:41:03.633Z,6.20
2022-09-28T07:43:31.161Z,5.40
2022-09-28T07:45:59.949Z,4.17
2022-09-28T07:48:28.781Z,4.70
2022-09-28T07:51:11.417Z,4.37
2022-09-28T07:53:58.338Z,4.47
2022-09-28T07:56:41.079Z,3.70
2022-09-28T07:59:26.981Z,2.70
2022-09-28T08:02:14.156Z,2.07
2022-09-28T08:04:43.745Z,2.10
2022-09-28T08:07:11.475Z,1.73
2022-09-28T08:09:39.678Z,1.50
2022-09-28T08:12:27.546Z,1.40
2022-09-28T08:15:19.758Z,1.30
2022-09-28T08:18:01.929Z,1.00
2022-09-28T08:20:51.658Z,0.90
2022-09-28T08:23:20.279Z,0.60
2022-09-28T08:25:48.915Z,0.60
2022-09-28T08:28:17.608Z,0.67
2022-09-28T08:30:47.411Z,0.40
2022-09-28T08:33:27.857Z,0.50
2022-09-28T08:36:15.502Z,0.50
2022-09-28T08:39:01.227Z,0.40
2022-09-28T08:41:50.541Z,0.60
2022-09-28T08:44:23.953Z,0.57
2022-09-28T08:47:38.838Z,0.20
2022-09-28T08:50:25.816Z,0.57
2022-09-28T08:53:15.697Z,0.50
2022-09-28T08:55:54.719Z,0.80
2022-09-28T08:58:24.639Z,0.53
2022-09-28T09:00:53.126Z,0.87
2022-09-28T09:03:23.667Z,1.20
2022-09-28T09:06:18.308Z,1.10
2022-09-28T09:08:58.764Z,1.43
2022-09-28T09:11:34.064Z,1.20
2022-09-28T09:14:31.510Z,1.10
2022-09-28T09:17:02.867Z,0.63
2022-09-28T09:19:53.173Z,0.80
2022-09-28T09:22:32.377Z,0.60
2022-09-28T09:25:04.531Z,0.60
2022-09-28T09:27:39.866Z,0.50
2022-09-28T09:30:10.779Z,0.50
2022-09-28T09:32:47.222Z,0.50
2022-09-28T09:35:31.601Z,0.60
2022-09-28T09:38:39.420Z,0.50
2022-09-28T09:41:37.316Z,0.57
2022-09-28T09:44:49.373Z,0.80
2022-09-28T09:47:38.602Z,1.30
2022-09-28T09:50:25.233Z,1.63
2022-09-28T09:52:55.162Z,1.70
2022-09-28T09:55:29.870Z,1.83
2022-09-28T09:58:19.650Z,2.20
2022-09-28T10:00:55.037Z,1.83
2022-09-28T10:03:43.989Z,1.77
2022-09-28T10:06:18.429Z,1.70
2022-09-28T10:08:49.017Z,1.60
2022-09-28T10:11:21.593Z,1.77
2022-09-28T10:13:55.470Z,1.70
2022-09-28T10:16:44.594Z,1.67
2022-09-28T10:19:20.865Z,1.80
2022-09-28T10:22:10.708Z,1.53
2022-09-28T10:24:41.312Z,1.40
2022-09-28T10:27:09.750Z,1.63
2022-09-28T10:29:44.443Z,1.50
2022-09-28T10:32:22.416Z,1.17
2022-09-28T10:34:53.304Z,1.10
2022-09-28T10:37:24.273Z,1.10
2022-09-28T10:40:02.122Z,1.20
2022-09-28T10:42:36.074Z,1.03
2022-09-28T10:45:19.763Z,0.90
2022-09-28T10:47:47.360Z,0.70
2022-09-28T10:50:21.975Z,1.00
2022-09-28T10:52:52.073Z,0.90
2022-09-28T10:55:57.711Z,1.30
2022-09-28T10:58:26.882Z,1.23
2022-09-28T11:01:00.713Z,0.83
2022-09-28T11:03:29.700Z,3.10
2022-09-28T11:06:02.905Z,4.23
2022-09-28T11:08:32.174Z,2.27
2022-09-28T11:11:06.364Z,4.80
2022-09-28T11:13:39.136Z,22.60
2022-09-28T11:16:19.579Z,2.80
2022-09-28T11:18:47.152Z,1.00
2022-09-28T11:21:16.153Z,0.70
2022-09-28T11:24:01.200Z,0.80
2022-09-28T11:26:35.422Z,0.40
2022-09-28T11:29:03.985Z,0.30
2022-09-28T11:31:54.026Z,0.40
2022-09-28T11:34:31.477Z,0.50
2022-09-28T11:37:29.533Z,0.50
2022-09-28T11:40:01.278Z,0.60
2022-09-28T11:42:32.852Z,0.50
2022-09-28T11:45:04.320Z,0.30
2022-09-28T11:47:49.833Z,0.40
2022-09-28T11:50:25.063Z,0.40
2022-09-28T11:52:56.832Z,0.30
2022-09-28T11:55:27.719Z,0.63
2022-09-28T11:57:58.004Z,0.40
2022-09-28T12:00:25.698Z,0.50
2022-09-28T12:03:02.142Z,0.50
2022-09-28T12:05:31.388Z,0.30
2022-09-28T12:08:01.232Z,0.40
2022-09-28T12:10:55.397Z,0.40
2022-09-28T12:13:39.840Z,0.50
2022-09-28T12:16:27.657Z,0.40
2022-09-28T12:21:35.511Z,0.50
2022-09-28T12:24:06.033Z,0.60
2022-09-28T12:26:37.341Z,0.40
2022-09-28T12:29:07.620Z,0.50
2022-09-28T12:31:36.476Z,0.40
2022-09-28T12:34:05.135Z,0.40
2022-09-28T12:36:41.647Z,0.60
2022-09-28T12:39:27.057Z,0.50
2022-09-28T12:42:14.371Z,0.53
2022-09-28T12:44:59.466Z,0.50
2022-09-28T12:47:39.264Z,0.50
2022-09-28T12:53:08.986Z,0.50
2022-09-28T12:55:45.381Z,0.50
2022-09-28T12:58:21.669Z,0.50
2022-09-28T13:00:53.325Z,0.50
2022-09-28T13:03:31.107Z,0.30
2022-09-28T13:06:10.888Z,0.53
2022-09-28T13:08:44.140Z,0.30
2022-09-28T13:11:16.810Z,0.50
2022-09-28T13:13:48.862Z,0.60
2022-09-28T13:16:19.484Z,0.40
2022-09-28T13:18:50.545Z,0.50
2022-09-28T13:21:23.725Z,0.30
2022-09-28T13:23:57.879Z,0.40
2022-09-28T13:26:37.916Z,0.57
2022-09-28T13:29:11.078Z,0.50
2022-09-28T13:31:46.604Z,0.60
2022-09-28T13:34:18.069Z,0.50
2022-09-28T13:36:48.276Z,0.87
2022-09-28T13:39:39.931Z,0.63
2022-09-28T13:42:09.061Z,0.70
2022-09-28T13:44:48.698Z,0.70
2022-09-28T13:47:26.917Z,0.60
2022-09-28T13:50:03.939Z,0.60
2022-09-28T13:52:36.869Z,0.60
2022-09-28T13:55:12.110Z,0.80
2022-09-28T13:57:43.128Z,0.60
2022-09-28T14:00:27.409Z,0.70
2022-09-28T14:02:58.773Z,0.90
2022-09-28T14:05:50.058Z,0.80
2022-09-28T14:08:28.109Z,0.80
2022-09-28T14:10:56.215Z,0.90
2022-09-28T14:13:44.843Z,0.70
2022-09-28T14:16:22.299Z,0.93
2022-09-28T14:18:51.070Z,0.70
2022-09-28T14:21:39.259Z,0.60
2022-09-28T14:24:14.652Z,0.60
2022-09-28T14:27:03.031Z,0.87
2022-09-28T14:29:31.221Z,0.90
2022-09-28T14:31:59.153Z,0.60
2022-09-28T14:34:31.119Z,0.53
2022-09-28T14:37:16.267Z,0.80
2022-09-28T14:40:04.176Z,0.80
2022-09-28T14:42:31.759Z,0.70
2022-09-28T14:45:18.041Z,0.60
2022-09-28T14:47:45.821Z,0.80
2022-09-28T14:50:22.625Z,0.77
2022-09-28T14:52:51.579Z,0.73
2022-09-28T14:55:24.141Z,0.67
2022-09-28T14:57:53.096Z,0.97
2022-09-28T15:00:21.637Z,0.80
2022-09-28T15:02:52.330Z,1.00
2022-09-28T15:05:23.587Z,1.20
2022-09-28T15:07:52.121Z,0.83
2022-09-28T15:10:31.328Z,0.90
2022-09-28T15:13:01.545Z,0.80
2022-09-28T15:15:32.062Z,0.97
2022-09-28T15:18:03.294Z,0.93
2022-09-28T15:20:32.798Z,0.90
2022-09-28T15:23:00.481Z,0.80
2022-09-28T15:25:30.128Z,0.97
2022-09-28T15:27:58.685Z,0.90
2022-09-28T15:30:27.672Z,0.90
2022-09-28T15:32:56.832Z,0.90
2022-09-28T15:35:24.952Z,1.00
2022-09-28T15:37:52.840Z,0.90
2022-09-28T15:40:22.419Z,1.00
2022-09-28T15:42:51.104Z,0.97
2022-09-28T15:45:27.347Z,1.00
2022-09-28T15:48:07.704Z,1.10
2022-09-28T15:50:36.631Z,1.20
2022-09-28T15:53:04.406Z,1.27
2022-09-28T15:55:33.094Z,1.27
2022-09-28T15:58:09.197Z,1.20
2022-09-28T16:00:36.709Z,1.23
2022-09-28T16:03:06.324Z,1.37
2022-09-28T16:05:35.999Z,1.43
2022-09-28T16:08:04.345Z,1.30
2022-09-28T16:10:34.366Z,1.67
2022-09-28T16:13:14.226Z,2.00
2022-09-28T16:15:41.714Z,2.27
2022-09-28T16:18:17.901Z,1.60
2022-09-28T16:20:46.656Z,1.20
2022-09-28T16:23:19.169Z,1.30
2022-09-28T16:25:50.331Z,1.40
2022-09-28T16:28:25.216Z,1.50
2022-09-28T16:31:02.228Z,1.50
2022-09-28T16:33:30.562Z,1.47
2022-09-28T16:36:02.488Z,1.67
2022-09-28T16:38:30.101Z,1.50
2022-09-28T16:41:01.335Z,1.17
2022-09-28T16:43:31.014Z,1.37
2022-09-28T16:46:00.101Z,1.37
2022-09-28T16:48:28.226Z,1.50
2022-09-28T16:50:55.706Z,1.33
2022-09-28T16:53:40.777Z,1.60
2022-09-28T16:56:08.522Z,1.37
2022-09-28T16:58:39.012Z,1.40
2022-09-28T17:01:08.579Z,1.73
2022-09-28T17:03:36.248Z,1.83
2022-09-28T17:06:05.160Z,1.90
2022-09-28T17:08:35.435Z,1.73
2022-09-28T17:11:14.790Z,1.83
2022-09-28T17:13:48.088Z,1.80
2022-09-28T17:16:17.705Z,1.80
2022-09-28T17:18:45.966Z,1.80
2022-09-28T17:21:15.988Z,1.87
2022-09-28T17:23:43.518Z,1.87
2022-09-28T17:26:15.972Z,1.93
2022-09-28T17:28:43.395Z,1.97
2022-09-28T17:31:13.047Z,1.83
2022-09-28T17:33:40.446Z,1.90
2022-09-28T17:36:08.052Z,2.20
2022-09-28T17:38:36.535Z,2.30
2022-09-28T17:41:04.068Z,2.10
2022-09-28T17:43:31.502Z,2.20
2022-09-28T17:45:59.151Z,2.23
2022-09-28T17:48:28.046Z,2.27
2022-09-28T17:50:55.367Z,2.13
2022-09-28T17:53:22.713Z,3.10
2022-09-28T17:55:50.121Z,3.13
2022-09-28T17:58:18.176Z,2.90
2022-09-28T18:00:46.729Z,3.10
2022-09-28T18:03:14.709Z,2.60
2022-09-28T18:05:43.973Z,2.77
2022-09-28T18:08:13.876Z,2.90
2022-09-28T18:10:41.430Z,2.63
2022-09-28T18:13:09.023Z,2.80
2022-09-28T18:15:37.080Z,3.73
2022-09-28T18:18:05.217Z,3.53
2022-09-28T18:20:32.665Z,4.13
2022-09-28T18:23:01.492Z,5.00
2022-09-28T18:25:29.948Z,3.90
2022-09-28T18:27:59.892Z,2.70
2022-09-28T18:30:27.972Z,1.20
2022-09-28T18:32:55.755Z,1.60
2022-09-28T18:35:23.449Z,1.70
2022-09-28T18:37:51.151Z,1.90
2022-09-28T18:40:20.362Z,2.47
2022-09-28T18:42:48.633Z,2.57
2022-09-28T18:45:17.242Z,2.57
2022-09-28T18:47:46.301Z,2.80
2022-09-28T18:50:15.343Z,2.70
2022-09-28T18:52:43.241Z,2.73
2022-09-28T18:55:11.462Z,2.50
2022-09-28T18:57:41.153Z,2.53
2022-09-28T19:00:09.680Z,2.77
2022-09-28T19:02:37.732Z,2.83
2022-09-28T19:05:06.341Z,3.50
2022-09-28T19:07:33.973Z,3.13
2022-09-28T19:10:01.540Z,3.43
2022-09-28T19:12:29.040Z,3.33
2022-09-28T19:14:59.522Z,3.13
2022-09-28T19:17:26.959Z,3.20
2022-09-28T19:19:54.446Z,3.63
2022-09-28T19:22:21.921Z,3.17
2022-09-28T19:24:49.342Z,3.10
2022-09-28T19:27:16.757Z,3.10
2022-09-28T19:29:44.173Z,3.53
2022-09-28T19:32:13.106Z,3.63
2022-09-28T19:34:40.631Z,3.03
2022-09-28T19:37:08.525Z,3.00
2022-09-28T19:39:35.949Z,2.70
2022-09-28T19:42:03.375Z,2.80
2022-09-28T19:44:32.292Z,3.30
2022-09-28T19:47:00.622Z,3.33
2022-09-28T19:49:36.693Z,2.80
2022-09-28T19:52:20.770Z,2.90
2022-09-28T19:54:56.363Z,2.87
2022-09-28T19:57:24.697Z,2.90
2022-09-28T19:59:53.804Z,2.67
2022-09-28T20:02:23.557Z,2.67
2022-09-28T20:04:52.375Z,3.13
2022-09-28T20:07:19.896Z,5.77
2022-09-28T20:09:47.304Z,3.67
2022-09-28T20:12:14.820Z,3.33
2022-09-28T20:14:42.239Z,2.57
2022-09-28T20:17:10.243Z,2.43
2022-09-28T20:19:38.185Z,2.33
2022-09-28T20:22:07.126Z,2.70
2022-09-28T20:24:34.542Z,2.10
2022-09-28T20:27:02.430Z,2.30
2022-09-28T20:29:31.420Z,2.23
2022-09-28T20:31:58.903Z,2.23
2022-09-28T20:34:26.350Z,2.33
2022-09-28T20:36:53.846Z,2.00
2022-09-28T20:39:22.596Z,2.10
2022-09-28T20:41:50.122Z,2.50
2022-09-28T20:44:17.620Z,2.17
2022-09-28T20:46:45.167Z,2.37
2022-09-28T20:49:12.651Z,2.27
2022-09-28T20:51:40.116Z,2.20
2022-09-28T20:54:07.624Z,2.33
2022-09-28T20:56:38.220Z,2.20
2022-09-28T20:59:05.704Z,2.23
2022-09-28T21:01:33.158Z,2.10
2022-09-28T21:04:01.062Z,2.13
2022-09-28T21:06:29.391Z,2.20
2022-09-28T21:08:57.023Z,2.23
2022-09-28T21:11:25.150Z,2.37
2022-09-28T21:13:54.484Z,2.63
2022-09-28T21:16:21.909Z,1.80
2022-09-28T21:18:49.421Z,2.23
2022-09-28T21:21:17.885Z,2.17
2022-09-28T21:23:45.398Z,2.27
2022-09-28T21:26:13.776Z,2.30
2022-09-28T21:28:41.312Z,2.10
2022-09-28T21:31:11.210Z,2.10
2022-09-28T21:33:38.717Z,2.10
2022-09-28T21:36:07.305Z,2.47
2022-09-28T21:38:35.179Z,2.10
2022-09-28T21:41:02.706Z,2.10
2022-09-28T21:43:31.147Z,1.93
2022-09-28T21:45:58.843Z,1.83
2022-09-28T21:48:28.312Z,2.03
2022-09-28T21:50:57.428Z,2.00
2022-09-28T21:53:24.903Z,1.80
2022-09-28T21:55:53.772Z,1.77
2022-09-28T21:58:23.067Z,1.70
2022-09-28T22:00:56.918Z,1.63
2022-09-28T22:03:28.136Z,1.93
2022-09-28T22:05:55.571Z,1.80
2022-09-28T22:08:23.016Z,1.67
2022-09-28T22:10:58.268Z,1.83
2022-09-28T22:13:26.151Z,1.40
2022-09-28T22:15:53.736Z,1.67
2022-09-28T22:18:21.197Z,1.90
2022-09-28T22:20:49.945Z,1.80
2022-09-28T22:23:17.521Z,2.07
2022-09-28T22:25:44.915Z,2.40
2022-09-28T22:28:12.338Z,3.53
2022-09-28T22:30:39.982Z,3.07
2022-09-28T22:33:07.421Z,2.83
2022-09-28T22:35:34.850Z,2.40
2022-09-28T22:38:03.617Z,2.40
2022-09-28T22:40:31.123Z,1.90
2022-09-28T22:42:58.642Z,2.70
2022-09-28T22:45:26.245Z,3.43
2022-09-28T22:47:53.934Z,4.00
2022-09-28T22:50:21.516Z,4.87
2022-09-28T22:52:48.953Z,3.90
2022-09-28T22:55:17.773Z,3.80
2022-09-28T22:57:45.421Z,8.50
2022-09-28T23:00:13.231Z,12.90
2022-09-28T23:02:40.686Z,8.70
2022-09-28T23:05:08.172Z,5.20
2022-09-28T23:07:35.589Z,3.60
2022-09-28T23:10:03.140Z,2.70
2022-09-28T23:12:33.293Z,2.17
2022-09-28T23:15:00.723Z,2.13
2022-09-28T23:17:28.630Z,2.03
2022-09-28T23:19:56.046Z,2.20
2022-09-28T23:22:23.477Z,1.60
2022-09-28T23:24:50.885Z,2.70
2022-09-28T23:27:18.354Z,2.30
2022-09-28T23:29:48.736Z,2.10
2022-09-28T23:32:17.004Z,1.70
2022-09-28T23:34:44.456Z,1.77
2022-09-28T23:37:11.884Z,1.90
2022-09-28T23:39:39.308Z,1.70
2022-09-28T23:42:06.799Z,1.87
2022-09-28T23:44:34.291Z,1.90
2022-09-28T23:47:03.211Z,1.63
2022-09-28T23:49:30.711Z,1.60
2022-09-28T23:51:58.774Z,1.63
2022-09-28T23:54:26.211Z,1.87
2022-09-28T23:56:53.697Z,1.80
2022-09-28T23:59:21.103Z,1.90
